Philip, South Dakota
Current Conditions -  °F | °C
As of 2:39 PM on Monday 24 Nov 2014 (Local Time) from KRAP Reporting Station
Light Snow Light Snow  
Wind Chill: 21°   Ceiling: 3200
Heat Index: 33°   Visibility: 9mi
Dew Point: 28°   Wind: 23mph
Humidity: 82%   Direction: 330°NNW
Pressure: 29.99"   Gusts: 33mph
Location:  44.04°N, 101.67°W
Report Text: KRAP 242139Z 33020G29KT 9SM -SN FEW010 BKN032 OVC060 01/M02 A2999 RMK AO2 PK WND 33033/2112 T00061022 PNO $
Loading
Personal Weather Stations






























Interactive Weather Map New forecast layout! Learn more

10-Day Weather Forecast

Advertisements
Track Severe Weather on mobile